Airfield :
LOGIN :

Register | Disclaimer

   EN    FR    IT 

 










Legend :    VFR   Marginal VFR   IFR   Intensive IFR   Very Intensive IFR
Visi :
Ceiling :
>= 8 km
>= 3000ft
5 to 8 km
1000 to 3000 ft
1500m to 5 km
500 to 1000 ft
800 to 1500m
200 to 500 ft
< 800m
< 200 ft
Symbols :   Thunderstorms  Fog  Heavy snow  Heavy precipitations  Wind > 20 kt
SIGMETs :     Misc.  Thunderstorms  Icing  Turbulence  Mountain Waves  Volcanic Ashes






- Airport Elevation : 52 ft
- IATA code : RNN


EKRN - Bornholm Ronne

CURRENT METAR :
  • 141220Z AUTO 22012KT 190V250 9999 // OVC008/// 05/04 Q0983

EXPIRED METARs :
  • 141150Z AUTO 22012KT 9999 OVC008/// 05/04 Q0983
  • 141120Z AUTO 22012KT 9999 OVC007/// 04/04 Q0983
  • 141050Z AUTO 21012KT 180V240 9999 -RA OVC008/// 04/03 Q0983
  • 141020Z AUTO 20015KT 9999 // OVC009/// 04/03 Q0983
  • 140950Z AUTO 20014KT 9999 -SHRA OVC009/// 04/03 Q0983

TAF TAF EKRN
Valid from the 14 at 12:00 until the 14 at 21:00 UTC


141128Z 1412/1421 19015KT 8000 -RADZ SCT005 BKN010
TEMPO 1412/1414 4000 BKN004
TEMPO 1414/1421 22018G28KT 4000 SHRA BKN008 BKN015CB



MET'MAP, your aeronautical weather chart ! - Copyright ORBIFLY December 2007 - Disclaimer

ORBIFLY MET'MAP TEAM :

Programming & Development : Alexandra Zaïnal
Concept & original design : Baudouin d'Aumeries
Assistance for programming : Marc-Olivier Méhu
Technical & hardware support : Manuel Goepfert

Contact : metmap@orbifly.com




SOURCES & CREDITS :

   NOAA